sensor_id;sensor_type;location;lat;lon;timestamp;temperature;humidity
73509;SHT30;61750;55.036;73.312;2023-04-24T00:00:31;8.81;80.84
73509;SHT30;61750;55.036;73.312;2023-04-24T00:02:57;8.85;80.54
73509;SHT30;61750;55.036;73.312;2023-04-24T00:05:34;8.91;80.51
73509;SHT30;61750;55.036;73.312;2023-04-24T00:08:00;8.98;80.33
73509;SHT30;61750;55.036;73.312;2023-04-24T00:10:34;9.01;80.29
73509;SHT30;61750;55.036;73.312;2023-04-24T00:13:01;9.05;80.18
73509;SHT30;61750;55.036;73.312;2023-04-24T00:15:34;9.10;80.16
73509;SHT30;61750;55.036;73.312;2023-04-24T00:18:00;9.07;80.36
73509;SHT30;61750;55.036;73.312;2023-04-24T00:20:34;9.19;80.93
73509;SHT30;61750;55.036;73.312;2023-04-24T00:23:07;9.24;80.87
73509;SHT30;61750;55.036;73.312;2023-04-24T00:25:34;9.29;80.84
73509;SHT30;61750;55.036;73.312;2023-04-24T00:28:00;9.35;80.88
73509;SHT30;61750;55.036;73.312;2023-04-24T00:30:26;9.39;81.10
73509;SHT30;61750;55.036;73.312;2023-04-24T00:33:02;9.45;81.09
73509;SHT30;61750;55.036;73.312;2023-04-24T00:35:34;9.53;80.88
73509;SHT30;61750;55.036;73.312;2023-04-24T00:38:00;9.53;80.79
73509;SHT30;61750;55.036;73.312;2023-04-24T00:40:36;9.58;81.04
73509;SHT30;61750;55.036;73.312;2023-04-24T00:43:02;9.62;80.83
73509;SHT30;61750;55.036;73.312;2023-04-24T00:45:34;9.63;80.41
73509;SHT30;61750;55.036;73.312;2023-04-24T00:48:00;9.66;80.59
73509;SHT30;61750;55.036;73.312;2023-04-24T00:50:35;9.69;80.55
73509;SHT30;61750;55.036;73.312;2023-04-24T00:53:01;9.73;80.53
73509;SHT30;61750;55.036;73.312;2023-04-24T00:55:34;9.79;80.49
73509;SHT30;61750;55.036;73.312;2023-04-24T00:58:04;9.85;80.35
73509;SHT30;61750;55.036;73.312;2023-04-24T01:00:30;9.82;79.20
73509;SHT30;61750;55.036;73.312;2023-04-24T01:02:57;9.65;79.02
73509;SHT30;61750;55.036;73.312;2023-04-24T01:05:34;9.59;78.98
73509;SHT30;61750;55.036;73.312;2023-04-24T01:08:00;9.46;78.70
73509;SHT30;61750;55.036;73.312;2023-04-24T01:10:34;9.40;78.87
73509;SHT30;61750;55.036;73.312;2023-04-24T01:13:00;9.32;79.13
73509;SHT30;61750;55.036;73.312;2023-04-24T01:15:34;9.32;79.06
73509;SHT30;61750;55.036;73.312;2023-04-24T01:18:00;9.32;78.97
73509;SHT30;61750;55.036;73.312;2023-04-24T01:20:34;9.35;79.11
73509;SHT30;61750;55.036;73.312;2023-04-24T01:23:03;9.35;79.00
73509;SHT30;61750;55.036;73.312;2023-04-24T01:25:34;9.36;79.11
73509;SHT30;61750;55.036;73.312;2023-04-24T01:28:05;9.34;79.20
73509;SHT30;61750;55.036;73.312;2023-04-24T01:30:31;9.32;79.33
73509;SHT30;61750;55.036;73.312;2023-04-24T01:32:58;9.35;79.19
73509;SHT30;61750;55.036;73.312;2023-04-24T01:35:34;9.29;79.24
73509;SHT30;61750;55.036;73.312;2023-04-24T01:38:01;9.27;79.48
73509;SHT30;61750;55.036;73.312;2023-04-24T01:40:34;9.24;79.31
73509;SHT30;61750;55.036;73.312;2023-04-24T01:43:00;9.22;79.47
73509;SHT30;61750;55.036;73.312;2023-04-24T01:45:34;9.18;79.54
73509;SHT30;61750;55.036;73.312;2023-04-24T01:48:03;9.15;79.71
73509;SHT30;61750;55.036;73.312;2023-04-24T01:50:34;9.07;79.98
73509;SHT30;61750;55.036;73.312;2023-04-24T01:53:00;9.08;80.24
73509;SHT30;61750;55.036;73.312;2023-04-24T01:55:34;9.19;80.36
73509;SHT30;61750;55.036;73.312;2023-04-24T01:58:00;9.31;80.09
73509;SHT30;61750;55.036;73.312;2023-04-24T02:00:27;9.45;80.02
73509;SHT30;61750;55.036;73.312;2023-04-24T02:02:53;9.66;79.87
73509;SHT30;61750;55.036;73.312;2023-04-24T02:05:34;9.80;79.74
73509;SHT30;61750;55.036;73.312;2023-04-24T02:08:02;9.92;79.98
73509;SHT30;61750;55.036;73.312;2023-04-24T02:10:34;9.96;80.25
73509;SHT30;61750;55.036;73.312;2023-04-24T02:13:00;10.06;80.16
73509;SHT30;61750;55.036;73.312;2023-04-24T02:15:37;10.24;80.03
73509;SHT30;61750;55.036;73.312;2023-04-24T02:18:03;10.44;79.33
73509;SHT30;61750;55.036;73.312;2023-04-24T02:20:34;10.43;78.99
73509;SHT30;61750;55.036;73.312;2023-04-24T02:23:01;10.40;79.06
73509;SHT30;61750;55.036;73.312;2023-04-24T02:25:34;10.36;79.03
73509;SHT30;61750;55.036;73.312;2023-04-24T02:28:00;10.32;79.62
73509;SHT30;61750;55.036;73.312;2023-04-24T02:30:26;10.37;79.57
73509;SHT30;61750;55.036;73.312;2023-04-24T02:32:52;10.29;79.94
73509;SHT30;61750;55.036;73.312;2023-04-24T02:35:34;10.32;79.89
73509;SHT30;61750;55.036;73.312;2023-04-24T02:38:00;10.34;79.90
73509;SHT30;61750;55.036;73.312;2023-04-24T02:40:34;10.27;80.25
73509;SHT30;61750;55.036;73.312;2023-04-24T02:43:01;10.21;80.61
73509;SHT30;61750;55.036;73.312;2023-04-24T02:45:37;10.32;80.44
73509;SHT30;61750;55.036;73.312;2023-04-24T02:48:09;10.41;79.82
73509;SHT30;61750;55.036;73.312;2023-04-24T02:50:35;10.48;79.02
73509;SHT30;61750;55.036;73.312;2023-04-24T02:53:01;10.53;78.46
73509;SHT30;61750;55.036;73.312;2023-04-24T02:55:34;10.88;78.11
73509;SHT30;61750;55.036;73.312;2023-04-24T02:58:00;10.99;76.71
73509;SHT30;61750;55.036;73.312;2023-04-24T03:00:26;10.79;76.79
73509;SHT30;61750;55.036;73.312;2023-04-24T03:02:52;10.69;78.07
73509;SHT30;61750;55.036;73.312;2023-04-24T03:05:34;10.81;77.74
73509;SHT30;61750;55.036;73.312;2023-04-24T03:08:09;10.53;78.11
73509;SHT30;61750;55.036;73.312;2023-04-24T03:10:36;10.44;78.41
73509;SHT30;61750;55.036;73.312;2023-04-24T03:13:01;10.33;78.98
73509;SHT30;61750;55.036;73.312;2023-04-24T03:15:33;10.21;79.11
73509;SHT30;61750;55.036;73.312;2023-04-24T03:18:05;10.21;79.26
73509;SHT30;61750;55.036;73.312;2023-04-24T03:20:34;10.17;79.70
73509;SHT30;61750;55.036;73.312;2023-04-24T03:23:10;10.06;79.60
73509;SHT30;61750;55.036;73.312;2023-04-24T03:25:37;10.00;80.07
73509;SHT30;61750;55.036;73.312;2023-04-24T03:28:03;9.96;80.19
73509;SHT30;61750;55.036;73.312;2023-04-24T03:30:54;9.82;80.33
73509;SHT30;61750;55.036;73.312;2023-04-24T03:33:22;9.68;80.96
73509;SHT30;61750;55.036;73.312;2023-04-24T03:36:02;9.65;81.38
73509;SHT30;61750;55.036;73.312;2023-04-24T03:38:38;9.69;81.25
73509;SHT30;61750;55.036;73.312;2023-04-24T03:41:37;9.62;81.31
73509;SHT30;61750;55.036;73.312;2023-04-24T03:44:17;9.70;81.40
73509;SHT30;61750;55.036;73.312;2023-04-24T03:46:44;9.73;80.99
73509;SHT30;61750;55.036;73.312;2023-04-24T03:49:10;9.76;80.90
73509;SHT30;61750;55.036;73.312;2023-04-24T03:51:51;9.73;81.09
73509;SHT30;61750;55.036;73.312;2023-04-24T03:54:23;9.66;81.30
73509;SHT30;61750;55.036;73.312;2023-04-24T03:56:50;9.70;81.67
73509;SHT30;61750;55.036;73.312;2023-04-24T03:59:28;9.73;81.55
73509;SHT30;61750;55.036;73.312;2023-04-24T04:02:22;9.75;81.35
73509;SHT30;61750;55.036;73.312;2023-04-24T04:04:51;9.70;81.53
73509;SHT30;61750;55.036;73.312;2023-04-24T04:07:18;9.76;81.85
73509;SHT30;61750;55.036;73.312;2023-04-24T04:09:49;9.87;81.78
73509;SHT30;61750;55.036;73.312;2023-04-24T04:12:15;9.92;81.37
73509;SHT30;61750;55.036;73.312;2023-04-24T04:14:41;9.82;81.65
73509;SHT30;61750;55.036;73.312;2023-04-24T04:17:07;9.82;81.68
73509;SHT30;61750;55.036;73.312;2023-04-24T04:19:35;9.83;81.56
73509;SHT30;61750;55.036;73.312;2023-04-24T04:22:01;10.03;81.31
73509;SHT30;61750;55.036;73.312;2023-04-24T04:24:36;10.23;80.00
73509;SHT30;61750;55.036;73.312;2023-04-24T04:27:04;10.38;79.46
73509;SHT30;61750;55.036;73.312;2023-04-24T04:29:46;10.37;78.90
73509;SHT30;61750;55.036;73.312;2023-04-24T04:32:14;10.38;78.66
73509;SHT30;61750;55.036;73.312;2023-04-24T04:34:41;10.25;79.14
73509;SHT30;61750;55.036;73.312;2023-04-24T04:37:11;10.27;79.54
73509;SHT30;61750;55.036;73.312;2023-04-24T04:39:45;10.23;79.46
73509;SHT30;61750;55.036;73.312;2023-04-24T04:42:20;10.30;79.37
73509;SHT30;61750;55.036;73.312;2023-04-24T04:44:47;10.43;78.66
73509;SHT30;61750;55.036;73.312;2023-04-24T04:47:20;10.54;78.22
73509;SHT30;61750;55.036;73.312;2023-04-24T04:49:47;10.57;78.48
73509;SHT30;61750;55.036;73.312;2023-04-24T04:52:23;10.54;78.65
73509;SHT30;61750;55.036;73.312;2023-04-24T04:55:37;10.41;79.24
73509;SHT30;61750;55.036;73.312;2023-04-24T04:58:18;10.40;79.04
73509;SHT30;61750;55.036;73.312;2023-04-24T05:00:46;10.41;78.90
73509;SHT30;61750;55.036;73.312;2023-04-24T05:03:22;10.44;78.90
73509;SHT30;61750;55.036;73.312;2023-04-24T05:06:06;10.37;78.14
73509;SHT30;61750;55.036;73.312;2023-04-24T05:08:40;10.34;78.19
73509;SHT30;61750;55.036;73.312;2023-04-24T05:11:20;10.53;77.87
73509;SHT30;61750;55.036;73.312;2023-04-24T05:13:47;10.68;76.86
73509;SHT30;61750;55.036;73.312;2023-04-24T05:16:22;11.11;75.46
73509;SHT30;61750;55.036;73.312;2023-04-24T05:18:51;10.94;75.19
73509;SHT30;61750;55.036;73.312;2023-04-24T05:21:26;11.22;74.43
73509;SHT30;61750;55.036;73.312;2023-04-24T05:23:54;11.09;73.97
73509;SHT30;61750;55.036;73.312;2023-04-24T05:27:17;11.28;74.00
73509;SHT30;61750;55.036;73.312;2023-04-24T05:29:43;11.44;73.60
73509;SHT30;61750;55.036;73.312;2023-04-24T05:32:14;11.59;72.41
73509;SHT30;61750;55.036;73.312;2023-04-24T05:34:40;11.62;71.94
73509;SHT30;61750;55.036;73.312;2023-04-24T05:37:06;11.60;72.19
73509;SHT30;61750;55.036;73.312;2023-04-24T05:39:35;12.06;71.25
73509;SHT30;61750;55.036;73.312;2023-04-24T05:42:12;12.64;69.03
73509;SHT30;61750;55.036;73.312;2023-04-24T05:44:38;12.45;68.88
73509;SHT30;61750;55.036;73.312;2023-04-24T05:47:04;12.14;69.76
73509;SHT30;61750;55.036;73.312;2023-04-24T05:49:31;12.49;68.68
73509;SHT30;61750;55.036;73.312;2023-04-24T05:51:57;12.69;67.89
73509;SHT30;61750;55.036;73.312;2023-04-24T05:54:31;12.88;67.49
73509;SHT30;61750;55.036;73.312;2023-04-24T05:57:02;13.18;67.28
73509;SHT30;61750;55.036;73.312;2023-04-24T06:00:07;12.88;67.37
73509;SHT30;61750;55.036;73.312;2023-04-24T06:02:50;13.01;67.62
73509;SHT30;61750;55.036;73.312;2023-04-24T06:05:34;13.16;67.47
73509;SHT30;61750;55.036;73.312;2023-04-24T06:08:02;13.47;66.69
73509;SHT30;61750;55.036;73.312;2023-04-24T06:10:34;13.84;64.92
73509;SHT30;61750;55.036;73.312;2023-04-24T06:13:00;13.60;64.20
73509;SHT30;61750;55.036;73.312;2023-04-24T06:15:34;13.50;64.09
73509;SHT30;61750;55.036;73.312;2023-04-24T06:18:06;13.47;63.09
73509;SHT30;61750;55.036;73.312;2023-04-24T06:20:42;13.54;62.27
73509;SHT30;61750;55.036;73.312;2023-04-24T06:23:09;13.40;62.66
73509;SHT30;61750;55.036;73.312;2023-04-24T06:25:35;13.57;63.23
73509;SHT30;61750;55.036;73.312;2023-04-24T06:28:01;14.07;62.72
73509;SHT30;61750;55.036;73.312;2023-04-24T06:30:39;13.97;62.94
73509;SHT30;61750;55.036;73.312;2023-04-24T06:33:06;14.83;61.03
73509;SHT30;61750;55.036;73.312;2023-04-24T06:35:33;15.23;58.45
73509;SHT30;61750;55.036;73.312;2023-04-24T06:37:59;15.47;58.60
73509;SHT30;61750;55.036;73.312;2023-04-24T06:40:36;15.77;57.16
73509;SHT30;61750;55.036;73.312;2023-04-24T06:43:02;15.58;56.14
73509;SHT30;61750;55.036;73.312;2023-04-24T06:45:37;15.42;56.35
73509;SHT30;61750;55.036;73.312;2023-04-24T06:48:04;15.42;56.31
73509;SHT30;61750;55.036;73.312;2023-04-24T06:50:36;15.06;57.88
73509;SHT30;61750;55.036;73.312;2023-04-24T06:53:02;15.29;57.24
73509;SHT30;61750;55.036;73.312;2023-04-24T06:55:35;14.81;58.43
73509;SHT30;61750;55.036;73.312;2023-04-24T06:58:01;14.64;58.98
73509;SHT30;61750;55.036;73.312;2023-04-24T07:00:27;14.46;59.69
73509;SHT30;61750;55.036;73.312;2023-04-24T07:02:59;14.35;59.80
73509;SHT30;61750;55.036;73.312;2023-04-24T07:05:34;14.46;59.61
73509;SHT30;61750;55.036;73.312;2023-04-24T07:08:00;14.25;59.34
73509;SHT30;61750;55.036;73.312;2023-04-24T07:10:36;14.08;59.31
73509;SHT30;61750;55.036;73.312;2023-04-24T07:13:07;13.94;59.12
73509;SHT30;61750;55.036;73.312;2023-04-24T07:15:33;13.57;59.52
73509;SHT30;61750;55.036;73.312;2023-04-24T07:18:00;13.40;60.13
73509;SHT30;61750;55.036;73.312;2023-04-24T07:20:33;13.29;60.98
73509;SHT30;61750;55.036;73.312;2023-04-24T07:23:00;13.46;61.13
73509;SHT30;61750;55.036;73.312;2023-04-24T07:25:33;13.56;61.29
73509;SHT30;61750;55.036;73.312;2023-04-24T07:28:00;13.24;62.12
73509;SHT30;61750;55.036;73.312;2023-04-24T07:30:26;12.85;62.78
73509;SHT30;61750;55.036;73.312;2023-04-24T07:32:54;13.01;62.87
73509;SHT30;61750;55.036;73.312;2023-04-24T07:35:33;12.79;63.09
73509;SHT30;61750;55.036;73.312;2023-04-24T07:38:00;12.59;63.97
73509;SHT30;61750;55.036;73.312;2023-04-24T07:40:36;12.44;65.02
73509;SHT30;61750;55.036;73.312;2023-04-24T07:43:02;12.48;64.94
73509;SHT30;61750;55.036;73.312;2023-04-24T07:45:34;12.45;65.68
73509;SHT30;61750;55.036;73.312;2023-04-24T07:48:07;12.30;66.27
73509;SHT30;61750;55.036;73.312;2023-04-24T07:50:34;12.38;66.79
73509;SHT30;61750;55.036;73.312;2023-04-24T07:53:01;12.08;67.44
73509;SHT30;61750;55.036;73.312;2023-04-24T07:55:33;12.10;67.79
73509;SHT30;61750;55.036;73.312;2023-04-24T07:58:00;12.06;67.59
73509;SHT30;61750;55.036;73.312;2023-04-24T08:00:26;11.98;67.01
73509;SHT30;61750;55.036;73.312;2023-04-24T08:02:52;11.66;67.45
73509;SHT30;61750;55.036;73.312;2023-04-24T08:05:33;11.53;67.68
73509;SHT30;61750;55.036;73.312;2023-04-24T08:07:59;11.31;68.42
73509;SHT30;61750;55.036;73.312;2023-04-24T08:10:34;11.07;69.64
73509;SHT30;61750;55.036;73.312;2023-04-24T08:13:00;10.82;70.36
73509;SHT30;61750;55.036;73.312;2023-04-24T08:15:34;10.78;70.84
73509;SHT30;61750;55.036;73.312;2023-04-24T08:18:00;10.77;71.04
73509;SHT30;61750;55.036;73.312;2023-04-24T08:20:34;10.60;71.55
73509;SHT30;61750;55.036;73.312;2023-04-24T08:23:00;10.47;71.73
73509;SHT30;61750;55.036;73.312;2023-04-24T08:25:36;10.44;71.81
73509;SHT30;61750;55.036;73.312;2023-04-24T08:28:03;10.33;72.05
73509;SHT30;61750;55.036;73.312;2023-04-24T08:30:29;10.47;71.80
73509;SHT30;61750;55.036;73.312;2023-04-24T08:32:56;10.65;71.20
73509;SHT30;61750;55.036;73.312;2023-04-24T08:35:33;10.64;70.88
73509;SHT30;61750;55.036;73.312;2023-04-24T08:37:59;10.50;71.67
73509;SHT30;61750;55.036;73.312;2023-04-24T08:40:36;10.57;71.77
73509;SHT30;61750;55.036;73.312;2023-04-24T08:43:07;10.32;71.17
73509;SHT30;61750;55.036;73.312;2023-04-24T08:45:37;10.23;71.52
73509;SHT30;61750;55.036;73.312;2023-04-24T08:48:04;10.57;70.86
73509;SHT30;61750;55.036;73.312;2023-04-24T08:50:34;10.95;68.67
73509;SHT30;61750;55.036;73.312;2023-04-24T08:53:00;11.46;67.16
73509;SHT30;61750;55.036;73.312;2023-04-24T08:55:34;12.01;64.66
73509;SHT30;61750;55.036;73.312;2023-04-24T08:58:00;12.13;63.34
73509;SHT30;61750;55.036;73.312;2023-04-24T09:00:31;12.27;62.72
73509;SHT30;61750;55.036;73.312;2023-04-24T09:03:07;12.33;62.43
73509;SHT30;61750;55.036;73.312;2023-04-24T09:05:33;12.61;61.29
73509;SHT30;61750;55.036;73.312;2023-04-24T09:08:00;13.66;58.19
73509;SHT30;61750;55.036;73.312;2023-04-24T09:10:33;13.62;57.32
73509;SHT30;61750;55.036;73.312;2023-04-24T09:13:00;13.19;58.14
73509;SHT30;61750;55.036;73.312;2023-04-24T09:15:37;13.09;58.21
73509;SHT30;61750;55.036;73.312;2023-04-24T09:18:08;12.40;57.92
73509;SHT30;61750;55.036;73.312;2023-04-24T09:23:25;12.12;58.21
73509;SHT30;61750;55.036;73.312;2023-04-24T09:25:54;12.38;55.89
73509;SHT30;61750;55.036;73.312;2023-04-24T09:28:22;12.92;55.08
73509;SHT30;61750;55.036;73.312;2023-04-24T09:31:01;12.88;53.76
73509;SHT30;61750;55.036;73.312;2023-04-24T09:33:29;13.36;51.69
73509;SHT30;61750;55.036;73.312;2023-04-24T09:35:57;13.80;51.24
73509;SHT30;61750;55.036;73.312;2023-04-24T09:38:34;14.75;47.07
73509;SHT30;61750;55.036;73.312;2023-04-24T09:41:01;15.43;44.85
73509;SHT30;61750;55.036;73.312;2023-04-24T09:43:29;15.19;44.31
73509;SHT30;61750;55.036;73.312;2023-04-24T09:46:09;15.33;44.63
73509;SHT30;61750;55.036;73.312;2023-04-24T09:48:36;14.93;44.29
73509;SHT30;61750;55.036;73.312;2023-04-24T09:51:02;15.83;43.61
73509;SHT30;61750;55.036;73.312;2023-04-24T09:53:29;16.00;42.95
73509;SHT30;61750;55.036;73.312;2023-04-24T09:56:06;15.23;43.91
73509;SHT30;61750;55.036;73.312;2023-04-24T09:58:34;15.66;43.48
73509;SHT30;61750;55.036;73.312;2023-04-24T10:01:01;15.80;42.99
73509;SHT30;61750;55.036;73.312;2023-04-24T10:03:30;16.28;42.94
73509;SHT30;61750;55.036;73.312;2023-04-24T10:06:00;17.10;39.33
73509;SHT30;61750;55.036;73.312;2023-04-24T10:08:26;17.28;34.93
73509;SHT30;61750;55.036;73.312;2023-04-24T10:10:58;17.53;34.10
73509;SHT30;61750;55.036;73.312;2023-04-24T10:13:25;17.51;32.76
73509;SHT30;61750;55.036;73.312;2023-04-24T10:15:52;17.41;32.73
73509;SHT30;61750;55.036;73.312;2023-04-24T10:18:22;17.16;32.11
73509;SHT30;61750;55.036;73.312;2023-04-24T10:20:49;17.16;27.17
73509;SHT30;61750;55.036;73.312;2023-04-24T10:23:15;17.31;27.77
73509;SHT30;61750;55.036;73.312;2023-04-24T10:25:44;17.51;28.47
73509;SHT30;61750;55.036;73.312;2023-04-24T10:28:10;18.02;27.34
73509;SHT30;61750;55.036;73.312;2023-04-24T10:30:37;17.58;27.93
73509;SHT30;61750;55.036;73.312;2023-04-24T10:33:05;17.33;28.78
73509;SHT30;61750;55.036;73.312;2023-04-24T10:35:35;17.74;28.82
73509;SHT30;61750;55.036;73.312;2023-04-24T10:38:03;17.47;29.36
73509;SHT30;61750;55.036;73.312;2023-04-24T10:40:34;17.30;30.21
73509;SHT30;61750;55.036;73.312;2023-04-24T10:43:04;17.09;31.08
73509;SHT30;61750;55.036;73.312;2023-04-24T10:45:37;17.47;30.22
73509;SHT30;61750;55.036;73.312;2023-04-24T10:48:16;17.84;30.31
73509;SHT30;61750;55.036;73.312;2023-04-24T10:50:47;17.46;30.77
73509;SHT30;61750;55.036;73.312;2023-04-24T10:53:17;17.33;30.80
73509;SHT30;61750;55.036;73.312;2023-04-24T10:55:45;17.33;31.10
73509;SHT30;61750;55.036;73.312;2023-04-24T10:58:11;17.00;31.51
73509;SHT30;61750;55.036;73.312;2023-04-24T11:00:54;17.55;31.10
73509;SHT30;61750;55.036;73.312;2023-04-24T11:05:57;17.74;29.52
73509;SHT30;61750;55.036;73.312;2023-04-24T11:08:30;17.36;29.49
73509;SHT30;61750;55.036;73.312;2023-04-24T11:10:57;17.37;28.87
73509;SHT30;61750;55.036;73.312;2023-04-24T11:16:32;17.00;29.19
73509;SHT30;61750;55.036;73.312;2023-04-24T11:19:09;17.00;29.28
73509;SHT30;61750;55.036;73.312;2023-04-24T11:21:39;17.34;28.81
73509;SHT30;61750;55.036;73.312;2023-04-24T11:27:16;17.19;28.10
73509;SHT30;61750;55.036;73.312;2023-04-24T11:34:56;17.48;25.91
73509;SHT30;61750;55.036;73.312;2023-04-24T11:37:37;17.19;26.47
73509;SHT30;61750;55.036;73.312;2023-04-24T11:40:33;17.57;26.00
73509;SHT30;61750;55.036;73.312;2023-04-24T11:43:00;17.64;26.02
73509;SHT30;61750;55.036;73.312;2023-04-24T11:45:33;17.91;26.13
73509;SHT30;61750;55.036;73.312;2023-04-24T11:47:59;17.78;26.04
73509;SHT30;61750;55.036;73.312;2023-04-24T11:50:33;18.02;25.41
73509;SHT30;61750;55.036;73.312;2023-04-24T11:52:59;17.73;25.99
73509;SHT30;61750;55.036;73.312;2023-04-24T11:55:33;18.77;25.65
73509;SHT30;61750;55.036;73.312;2023-04-24T11:58:00;18.05;25.64
73509;SHT30;61750;55.036;73.312;2023-04-24T12:00:28;18.79;25.15
73509;SHT30;61750;55.036;73.312;2023-04-24T12:03:04;18.79;25.51
73509;SHT30;61750;55.036;73.312;2023-04-24T12:05:36;18.53;25.75
73509;SHT30;61750;55.036;73.312;2023-04-24T12:08:03;18.11;26.47
73509;SHT30;61750;55.036;73.312;2023-04-24T12:10:34;18.38;25.81
73509;SHT30;61750;55.036;73.312;2023-04-24T12:13:10;17.74;26.08
73509;SHT30;61750;55.036;73.312;2023-04-24T12:15:39;18.43;25.67
73509;SHT30;61750;55.036;73.312;2023-04-24T12:18:05;18.38;25.45
73509;SHT30;61750;55.036;73.312;2023-04-24T12:20:35;18.39;25.27
73509;SHT30;61750;55.036;73.312;2023-04-24T12:23:01;17.64;25.02
73509;SHT30;61750;55.036;73.312;2023-04-24T12:25:33;17.75;24.78
73509;SHT30;61750;55.036;73.312;2023-04-24T12:28:13;17.54;25.21
73509;SHT30;61750;55.036;73.312;2023-04-24T12:30:40;17.48;25.10
73509;SHT30;61750;55.036;73.312;2023-04-24T12:33:06;17.12;25.29
73509;SHT30;61750;55.036;73.312;2023-04-24T12:35:33;17.30;24.89
73509;SHT30;61750;55.036;73.312;2023-04-24T12:38:11;16.38;25.04
73509;SHT30;61750;55.036;73.312;2023-04-24T12:40:38;16.02;25.31
73509;SHT30;61750;55.036;73.312;2023-04-24T12:43:14;16.35;25.27
73509;SHT30;61750;55.036;73.312;2023-04-24T12:45:41;15.61;26.08
73509;SHT30;61750;55.036;73.312;2023-04-24T12:48:07;16.02;25.73
73509;SHT30;61750;55.036;73.312;2023-04-24T12:50:33;15.93;26.19
73509;SHT30;61750;55.036;73.312;2023-04-24T12:52:59;16.38;25.68
73509;SHT30;61750;55.036;73.312;2023-04-24T12:55:33;15.67;26.08
73509;SHT30;61750;55.036;73.312;2023-04-24T12:57:59;15.90;25.70
73509;SHT30;61750;55.036;73.312;2023-04-24T13:00:26;15.98;25.32
73509;SHT30;61750;55.036;73.312;2023-04-24T13:02:52;15.70;25.49
73509;SHT30;61750;55.036;73.312;2023-04-24T13:05:33;14.78;26.19
73509;SHT30;61750;55.036;73.312;2023-04-24T13:08:00;14.54;26.42
73509;SHT30;61750;55.036;73.312;2023-04-24T13:10:34;14.86;26.33
73509;SHT30;61750;55.036;73.312;2023-04-24T13:13:00;14.51;26.62
73509;SHT30;61750;55.036;73.312;2023-04-24T13:15:33;14.28;26.74
73509;SHT30;61750;55.036;73.312;2023-04-24T13:18:00;14.00;27.21
73509;SHT30;61750;55.036;73.312;2023-04-24T13:20:33;13.43;27.72
73509;SHT30;61750;55.036;73.312;2023-04-24T13:23:02;12.99;28.39
73509;SHT30;61750;55.036;73.312;2023-04-24T13:25:35;13.09;28.43
73509;SHT30;61750;55.036;73.312;2023-04-24T13:28:01;12.65;28.98
73509;SHT30;61750;55.036;73.312;2023-04-24T13:30:27;12.34;29.24
73509;SHT30;61750;55.036;73.312;2023-04-24T13:32:53;12.08;29.39
73509;SHT30;61750;55.036;73.312;2023-04-24T13:35:33;11.86;30.06
73509;SHT30;61750;55.036;73.312;2023-04-24T13:37:59;12.28;30.08
73509;SHT30;61750;55.036;73.312;2023-04-24T13:40:33;12.06;29.85
73509;SHT30;61750;55.036;73.312;2023-04-24T13:42:59;11.76;30.77
73509;SHT30;61750;55.036;73.312;2023-04-24T13:45:34;10.89;31.83
73509;SHT30;61750;55.036;73.312;2023-04-24T13:48:00;10.40;32.72
73509;SHT30;61750;55.036;73.312;2023-04-24T13:50:33;9.99;33.30
73509;SHT30;61750;55.036;73.312;2023-04-24T13:53:10;9.68;34.03
73509;SHT30;61750;55.036;73.312;2023-04-24T13:55:40;9.35;34.45
73509;SHT30;61750;55.036;73.312;2023-04-24T13:58:11;9.12;34.93
73509;SHT30;61750;55.036;73.312;2023-04-24T14:00:37;8.89;35.18
73509;SHT30;61750;55.036;73.312;2023-04-24T14:03:03;8.74;35.32
73509;SHT30;61750;55.036;73.312;2023-04-24T14:05:33;8.59;35.37
73509;SHT30;61750;55.036;73.312;2023-04-24T14:07:59;8.43;35.04
73509;SHT30;61750;55.036;73.312;2023-04-24T14:10:33;8.30;34.90
73509;SHT30;61750;55.036;73.312;2023-04-24T14:12:59;8.19;35.16
73509;SHT30;61750;55.036;73.312;2023-04-24T14:15:35;8.05;35.44
73509;SHT30;61750;55.036;73.312;2023-04-24T14:18:12;7.95;35.37
73509;SHT30;61750;55.036;73.312;2023-04-24T14:20:44;7.83;35.47
73509;SHT30;61750;55.036;73.312;2023-04-24T14:23:15;7.72;35.55
73509;SHT30;61750;55.036;73.312;2023-04-24T14:25:51;7.62;36.25
73509;SHT30;61750;55.036;73.312;2023-04-24T14:28:19;7.52;35.89
73509;SHT30;61750;55.036;73.312;2023-04-24T14:30:46;7.40;36.47
73509;SHT30;61750;55.036;73.312;2023-04-24T14:33:12;7.34;36.44
73509;SHT30;61750;55.036;73.312;2023-04-24T14:35:39;7.23;36.71
73509;SHT30;61750;55.036;73.312;2023-04-24T14:38:10;7.20;36.48
73509;SHT30;61750;55.036;73.312;2023-04-24T14:40:41;7.13;36.63
73509;SHT30;61750;55.036;73.312;2023-04-24T14:43:07;7.05;36.97
73509;SHT30;61750;55.036;73.312;2023-04-24T14:45:33;6.99;37.34
73509;SHT30;61750;55.036;73.312;2023-04-24T14:47:59;6.91;37.44
73509;SHT30;61750;55.036;73.312;2023-04-24T14:50:33;6.80;37.82
73509;SHT30;61750;55.036;73.312;2023-04-24T14:53:09;6.72;38.10
73509;SHT30;61750;55.036;73.312;2023-04-24T14:55:35;6.66;38.26
73509;SHT30;61750;55.036;73.312;2023-04-24T14:58:02;6.59;38.26
73509;SHT30;61750;55.036;73.312;2023-04-24T15:00:33;6.53;37.78
73509;SHT30;61750;55.036;73.312;2023-04-24T15:03:00;6.50;37.95
73509;SHT30;61750;55.036;73.312;2023-04-24T15:05:33;6.48;37.80
73509;SHT30;61750;55.036;73.312;2023-04-24T15:08:00;6.40;38.09
73509;SHT30;61750;55.036;73.312;2023-04-24T15:10:33;6.32;38.19
73509;SHT30;61750;55.036;73.312;2023-04-24T15:12:59;6.24;38.31
73509;SHT30;61750;55.036;73.312;2023-04-24T15:15:33;6.18;38.56
73509;SHT30;61750;55.036;73.312;2023-04-24T15:17:59;6.08;38.77
73509;SHT30;61750;55.036;73.312;2023-04-24T15:20:33;6.11;38.91
73509;SHT30;61750;55.036;73.312;2023-04-24T15:23:00;6.02;38.98
73509;SHT30;61750;55.036;73.312;2023-04-24T15:25:37;5.94;38.95
73509;SHT30;61750;55.036;73.312;2023-04-24T15:28:03;5.88;39.22
73509;SHT30;61750;55.036;73.312;2023-04-24T15:30:30;5.88;39.31
73509;SHT30;61750;55.036;73.312;2023-04-24T15:32:57;5.84;39.26
73509;SHT30;61750;55.036;73.312;2023-04-24T15:35:33;5.81;39.35
73509;SHT30;61750;55.036;73.312;2023-04-24T15:38:00;5.77;39.57
73509;SHT30;61750;55.036;73.312;2023-04-24T15:40:33;5.73;39.70
73509;SHT30;61750;55.036;73.312;2023-04-24T15:42:59;5.67;39.89
73509;SHT30;61750;55.036;73.312;2023-04-24T15:45:33;5.70;39.81
73509;SHT30;61750;55.036;73.312;2023-04-24T15:48:00;5.54;40.38
73509;SHT30;61750;55.036;73.312;2023-04-24T15:50:33;5.50;40.54
73509;SHT30;61750;55.036;73.312;2023-04-24T15:52:59;5.43;40.57
73509;SHT30;61750;55.036;73.312;2023-04-24T15:55:33;5.44;40.71
73509;SHT30;61750;55.036;73.312;2023-04-24T15:58:00;5.40;40.81